createdAt,value
2022-11-29T00:01:46.535Z,3.56
2022-11-29T00:04:12.864Z,3.32
2022-11-29T00:06:39.169Z,2.83
2022-11-29T00:09:05.481Z,2.73
2022-11-29T00:11:31.767Z,2.70
2022-11-29T00:13:58.069Z,2.38
2022-11-29T00:16:24.412Z,2.23
2022-11-29T00:18:50.716Z,1.90
2022-11-29T00:21:17.019Z,1.88
2022-11-29T00:23:43.336Z,2.55
2022-11-29T00:26:09.629Z,3.01
2022-11-29T00:28:35.929Z,2.58
2022-11-29T00:31:03.094Z,2.26
2022-11-29T00:33:29.401Z,2.14
2022-11-29T00:35:55.691Z,2.48
2022-11-29T00:38:21.994Z,2.72
2022-11-29T00:40:48.284Z,2.68
2022-11-29T00:43:14.594Z,2.52
2022-11-29T00:45:40.945Z,2.48
2022-11-29T00:48:07.256Z,2.45
2022-11-29T00:50:33.556Z,1.90
2022-11-29T00:52:59.867Z,1.67
2022-11-29T00:55:26.163Z,1.90
2022-11-29T00:57:52.462Z,2.12
2022-11-29T01:00:18.785Z,2.19
2022-11-29T01:02:45.086Z,2.38
2022-11-29T01:05:11.403Z,2.50
2022-11-29T01:07:37.759Z,2.33
2022-11-29T01:10:04.089Z,2.14
2022-11-29T01:12:30.391Z,2.03
2022-11-29T01:14:56.720Z,1.96
2022-11-29T01:17:23.035Z,2.00
2022-11-29T01:19:51.022Z,2.02
2022-11-29T01:22:17.525Z,2.13
2022-11-29T01:24:44.140Z,2.21
2022-11-29T01:27:10.655Z,2.31
2022-11-29T01:29:36.971Z,2.16
2022-11-29T01:32:03.261Z,2.33
2022-11-29T01:34:29.565Z,2.32
2022-11-29T01:36:55.918Z,2.13
2022-11-29T01:39:22.207Z,1.69
2022-11-29T01:41:48.487Z,1.69
2022-11-29T01:44:14.794Z,1.94
2022-11-29T01:46:41.090Z,2.07
2022-11-29T01:49:07.374Z,1.99
2022-11-29T01:51:33.678Z,1.84
2022-11-29T01:53:59.951Z,1.30
2022-11-29T01:56:26.225Z,1.11
2022-11-29T01:58:52.530Z,1.11
2022-11-29T02:01:18.842Z,1.05
2022-11-29T02:03:45.157Z,1.09
2022-11-29T02:06:11.449Z,1.28
2022-11-29T02:08:37.728Z,1.48
2022-11-29T02:11:04.015Z,1.52
2022-11-29T02:13:30.350Z,1.53
2022-11-29T02:15:56.668Z,1.55
2022-11-29T02:18:22.976Z,1.49
2022-11-29T02:20:49.285Z,1.53
2022-11-29T02:23:15.567Z,1.42
2022-11-29T02:25:41.855Z,1.18
2022-11-29T02:28:08.152Z,1.20
2022-11-29T02:30:34.486Z,1.20
2022-11-29T02:33:00.798Z,1.33
2022-11-29T02:35:27.095Z,1.27
2022-11-29T02:37:53.377Z,1.32
2022-11-29T02:40:19.669Z,1.62
2022-11-29T02:42:48.709Z,1.55
2022-11-29T02:45:18.825Z,1.54
2022-11-29T02:47:45.105Z,1.48
2022-11-29T02:50:11.411Z,1.59
2022-11-29T02:52:37.701Z,1.67
2022-11-29T02:55:03.990Z,1.42
2022-11-29T02:57:30.272Z,1.51
2022-11-29T02:59:56.564Z,1.25
2022-11-29T03:02:22.902Z,1.25
2022-11-29T03:04:49.262Z,1.10
2022-11-29T03:07:15.573Z,1.25
2022-11-29T03:09:41.881Z,1.51
2022-11-29T03:12:08.184Z,2.33
2022-11-29T03:14:34.475Z,2.76
2022-11-29T03:17:00.763Z,2.99
2022-11-29T03:19:27.075Z,2.93
2022-11-29T03:21:53.362Z,3.22
2022-11-29T03:24:19.641Z,3.44
2022-11-29T03:26:45.954Z,3.62
2022-11-29T03:29:12.241Z,3.37
2022-11-29T03:31:38.532Z,3.60
2022-11-29T03:34:04.833Z,4.23
2022-11-29T03:36:31.117Z,4.15
2022-11-29T03:38:57.408Z,3.95
2022-11-29T03:41:23.721Z,3.70
2022-11-29T03:43:50.012Z,3.94
2022-11-29T03:46:16.406Z,4.00
2022-11-29T03:48:42.792Z,4.11
2022-11-29T03:51:09.086Z,4.31
2022-11-29T03:53:35.387Z,4.39
2022-11-29T03:56:01.797Z,4.22
2022-11-29T03:58:28.089Z,3.93
2022-11-29T04:00:54.376Z,4.20
2022-11-29T04:03:20.680Z,4.17
2022-11-29T04:05:46.977Z,4.32
2022-11-29T04:08:13.263Z,4.19
2022-11-29T04:10:39.575Z,3.83
2022-11-29T04:13:06.115Z,3.79
2022-11-29T04:15:32.405Z,3.70
2022-11-29T04:17:58.704Z,3.53
2022-11-29T04:20:24.996Z,3.66
2022-11-29T04:22:51.289Z,3.30
2022-11-29T04:25:17.586Z,3.54
2022-11-29T04:27:43.872Z,3.24
2022-11-29T04:30:10.166Z,3.08
2022-11-29T04:32:36.473Z,3.00
2022-11-29T04:35:02.767Z,2.87
2022-11-29T04:37:29.054Z,3.20
2022-11-29T04:39:55.363Z,2.90
2022-11-29T04:42:21.656Z,3.16
2022-11-29T04:44:47.946Z,3.47
2022-11-29T04:47:14.256Z,4.49
2022-11-29T04:49:40.550Z,4.58
2022-11-29T04:52:06.844Z,4.83
2022-11-29T04:54:33.195Z,4.70
2022-11-29T04:56:59.482Z,3.68
2022-11-29T04:59:25.787Z,3.48
2022-11-29T05:01:52.163Z,3.38
2022-11-29T05:04:18.492Z,3.31
2022-11-29T05:06:44.785Z,3.24
2022-11-29T05:09:11.099Z,3.47
2022-11-29T05:11:37.405Z,3.56
2022-11-29T05:14:03.712Z,3.23
2022-11-29T05:16:30.024Z,3.27
2022-11-29T05:18:56.321Z,3.36
2022-11-29T05:21:22.616Z,3.65
2022-11-29T05:23:48.928Z,3.35
2022-11-29T05:26:15.357Z,3.07
2022-11-29T05:28:41.671Z,3.27
2022-11-29T05:31:08.018Z,3.51
2022-11-29T05:33:34.333Z,3.56
2022-11-29T05:36:00.640Z,3.47
2022-11-29T05:38:26.953Z,3.70
2022-11-29T05:40:53.244Z,3.73
2022-11-29T05:43:19.546Z,3.98
2022-11-29T05:45:45.869Z,3.97
2022-11-29T05:48:12.169Z,4.48
2022-11-29T05:50:38.453Z,4.43
2022-11-29T05:53:04.769Z,4.25
2022-11-29T05:55:31.069Z,3.81
2022-11-29T05:57:57.384Z,3.86
2022-11-29T06:00:23.748Z,3.76
2022-11-29T06:02:50.105Z,3.48
2022-11-29T06:05:16.413Z,3.52
2022-11-29T06:07:42.757Z,3.61
2022-11-29T06:10:09.131Z,3.48
2022-11-29T06:12:35.425Z,3.35
2022-11-29T06:15:01.741Z,3.37
2022-11-29T06:17:28.045Z,3.58
2022-11-29T06:19:54.335Z,3.69
2022-11-29T06:22:20.641Z,3.71
2022-11-29T06:24:47.238Z,3.71
2022-11-29T06:27:13.692Z,4.07
2022-11-29T06:29:40.004Z,4.15
2022-11-29T06:32:06.332Z,4.24
2022-11-29T06:34:32.636Z,4.25
2022-11-29T06:36:58.957Z,4.56
2022-11-29T06:39:25.256Z,4.77
2022-11-29T06:41:51.549Z,5.09
2022-11-29T06:44:18.047Z,5.40
2022-11-29T06:46:44.561Z,5.78
2022-11-29T06:49:11.159Z,6.21
2022-11-29T06:51:37.537Z,6.28
2022-11-29T06:54:03.845Z,6.69
2022-11-29T06:56:30.147Z,6.13
2022-11-29T06:58:56.471Z,6.01
2022-11-29T07:01:22.838Z,5.93
2022-11-29T07:03:49.200Z,6.12
2022-11-29T07:06:15.555Z,6.29
2022-11-29T07:08:41.860Z,5.84
2022-11-29T07:11:08.161Z,5.55
2022-11-29T07:13:34.469Z,5.00
2022-11-29T07:16:00.820Z,5.14
2022-11-29T07:18:27.477Z,5.27
2022-11-29T07:20:53.823Z,5.50
2022-11-29T07:23:20.283Z,5.51
2022-11-29T07:25:46.581Z,5.56
2022-11-29T07:28:12.910Z,5.47
2022-11-29T07:30:39.204Z,6.09
2022-11-29T07:33:05.809Z,6.61
2022-11-29T07:35:32.221Z,6.78
2022-11-29T07:37:58.515Z,6.24
2022-11-29T07:40:24.819Z,6.01
2022-11-29T07:42:51.267Z,5.92
2022-11-29T07:45:17.561Z,5.96
2022-11-29T07:47:43.860Z,5.88
2022-11-29T07:50:10.182Z,5.75
2022-11-29T07:52:36.875Z,5.32
2022-11-29T07:55:03.258Z,5.50
2022-11-29T07:57:29.558Z,5.34
2022-11-29T07:59:55.876Z,5.21
2022-11-29T08:02:22.201Z,5.16
2022-11-29T08:04:48.643Z,5.01
2022-11-29T08:07:15.160Z,5.11
2022-11-29T08:09:41.874Z,5.04
2022-11-29T08:12:08.307Z,4.84
2022-11-29T08:14:34.635Z,4.67
2022-11-29T08:17:00.921Z,4.83
2022-11-29T08:19:27.236Z,4.36
2022-11-29T08:21:53.535Z,4.23
2022-11-29T08:24:19.837Z,4.73
2022-11-29T08:26:46.163Z,4.80
2022-11-29T08:29:12.459Z,4.53
2022-11-29T08:31:38.827Z,4.71
2022-11-29T08:34:05.174Z,4.36
2022-11-29T08:36:31.478Z,4.82
2022-11-29T08:39:05.948Z,5.43
2022-11-29T08:41:35.144Z,5.72
2022-11-29T08:44:01.467Z,6.07
2022-11-29T08:46:27.773Z,5.92
2022-11-29T08:48:54.083Z,5.58
2022-11-29T08:51:20.378Z,5.69
2022-11-29T08:53:46.679Z,4.96
2022-11-29T08:56:53.331Z,4.37
2022-11-29T08:58:59.261Z,4.31
2022-11-29T09:01:25.602Z,4.50
2022-11-29T09:03:51.937Z,4.26
2022-11-29T09:06:18.241Z,4.36
2022-11-29T09:08:44.562Z,4.37
2022-11-29T09:11:10.867Z,4.55
2022-11-29T09:13:37.177Z,4.85
2022-11-29T09:16:03.580Z,4.73
2022-11-29T09:18:29.941Z,4.71
2022-11-29T09:20:56.235Z,4.59
2022-11-29T09:23:22.567Z,4.54
2022-11-29T09:25:52.093Z,4.33
2022-11-29T09:28:18.481Z,4.21
2022-11-29T09:30:44.879Z,4.80
2022-11-29T09:33:11.270Z,4.58
2022-11-29T09:35:37.578Z,4.91
2022-11-29T09:38:03.940Z,4.56
2022-11-29T09:40:30.267Z,4.59
2022-11-29T09:42:57.823Z,4.94
2022-11-29T09:45:24.164Z,5.54
2022-11-29T09:47:50.480Z,5.74
2022-11-29T09:50:16.776Z,5.97
2022-11-29T09:52:43.116Z,5.44
2022-11-29T09:55:09.430Z,4.57
2022-11-29T09:57:35.742Z,3.30
2022-11-29T10:00:02.070Z,1.94
2022-11-29T10:02:28.432Z,1.55
2022-11-29T10:04:54.727Z,1.82
2022-11-29T10:07:21.099Z,1.65
2022-11-29T10:09:47.437Z,1.85
2022-11-29T10:12:13.767Z,1.99
2022-11-29T10:14:40.088Z,2.57
2022-11-29T10:17:06.387Z,2.62
2022-11-29T10:19:32.690Z,2.78
2022-11-29T10:21:59.045Z,2.86
2022-11-29T10:24:25.355Z,3.46
2022-11-29T10:26:51.646Z,3.47
2022-11-29T10:29:17.973Z,5.36
2022-11-29T10:31:44.276Z,7.05
2022-11-29T10:34:10.584Z,7.26
2022-11-29T10:36:36.909Z,8.01
2022-11-29T10:39:03.202Z,7.34
2022-11-29T10:41:29.505Z,7.43
2022-11-29T10:43:55.816Z,7.27
2022-11-29T10:46:22.180Z,7.10
2022-11-29T10:48:48.486Z,6.92
2022-11-29T10:51:14.820Z,6.41
2022-11-29T10:53:41.120Z,6.25
2022-11-29T10:56:07.420Z,6.30
2022-11-29T10:58:33.744Z,5.86
2022-11-29T11:01:00.108Z,5.01
2022-11-29T11:03:26.487Z,4.90
2022-11-29T11:05:52.854Z,5.05
2022-11-29T11:08:19.229Z,4.65
2022-11-29T11:10:51.024Z,5.20
2022-11-29T11:13:19.395Z,5.50
2022-11-29T11:15:45.695Z,5.92
2022-11-29T11:18:11.986Z,5.24
2022-11-29T11:20:38.290Z,5.01
2022-11-29T11:23:04.573Z,5.46
2022-11-29T11:25:30.873Z,5.34
2022-11-29T11:27:57.232Z,5.63
2022-11-29T11:30:23.527Z,5.76
2022-11-29T11:32:49.814Z,5.57
2022-11-29T11:35:18.474Z,5.21
2022-11-29T11:37:44.998Z,5.28
2022-11-29T11:40:11.387Z,5.60
2022-11-29T11:42:37.819Z,6.14
2022-11-29T11:45:04.374Z,6.08
2022-11-29T11:47:30.852Z,5.47
2022-11-29T11:49:57.183Z,6.15
2022-11-29T11:52:23.490Z,6.59
2022-11-29T11:54:49.784Z,6.79
2022-11-29T11:57:16.099Z,6.87
2022-11-29T11:59:42.392Z,7.03
2022-11-29T12:02:08.709Z,6.85
2022-11-29T12:04:35.020Z,6.70
2022-11-29T12:07:01.301Z,5.98
2022-11-29T12:09:27.595Z,5.88
2022-11-29T12:11:53.905Z,5.85
2022-11-29T12:14:20.196Z,5.95
2022-11-29T12:16:46.486Z,6.42
2022-11-29T12:19:12.794Z,6.57
2022-11-29T12:21:39.092Z,6.32
2022-11-29T12:24:05.400Z,4.99
2022-11-29T12:29:18.028Z,4.59
2022-11-29T12:31:44.395Z,3.12
2022-11-29T12:34:10.688Z,3.41
2022-11-29T12:36:36.981Z,3.64
2022-11-29T12:39:03.297Z,3.81
2022-11-29T12:41:29.586Z,4.28
2022-11-29T12:43:55.879Z,4.37
2022-11-29T12:46:22.254Z,4.14
2022-11-29T12:48:48.597Z,4.43
2022-11-29T12:51:14.918Z,4.65
2022-11-29T12:53:41.231Z,4.84
2022-11-29T12:56:07.535Z,4.96
2022-11-29T12:58:33.827Z,5.14
2022-11-29T13:01:00.153Z,5.35
2022-11-29T13:03:26.447Z,5.21
2022-11-29T13:05:52.862Z,4.39
2022-11-29T13:08:19.172Z,3.38
2022-11-29T13:10:45.736Z,3.46
2022-11-29T13:13:12.042Z,3.54
2022-11-29T13:15:38.418Z,3.19
2022-11-29T13:18:04.732Z,3.52
2022-11-29T13:20:31.027Z,4.56
2022-11-29T13:22:57.362Z,3.87
2022-11-29T13:25:23.659Z,4.31
2022-11-29T13:27:49.971Z,4.38
2022-11-29T13:30:16.299Z,4.02
2022-11-29T13:32:42.588Z,3.68
2022-11-29T13:35:08.881Z,3.46
2022-11-29T13:37:35.245Z,3.84
2022-11-29T13:40:01.556Z,3.97
2022-11-29T13:42:27.858Z,4.38
2022-11-29T13:44:54.181Z,4.30
2022-11-29T13:47:20.487Z,3.85
2022-11-29T13:49:46.789Z,3.77
2022-11-29T13:52:13.105Z,4.12
2022-11-29T13:54:39.397Z,3.53
2022-11-29T13:57:05.682Z,4.06
2022-11-29T13:59:31.998Z,4.10
2022-11-29T14:01:58.355Z,4.00
2022-11-29T14:04:24.753Z,3.87
2022-11-29T14:06:51.059Z,3.42
2022-11-29T14:09:19.385Z,3.51
2022-11-29T14:11:46.315Z,3.49
2022-11-29T14:14:12.650Z,3.61
2022-11-29T14:16:38.962Z,3.04
2022-11-29T14:19:05.281Z,2.47
2022-11-29T14:21:31.597Z,2.67
2022-11-29T14:23:57.892Z,2.41
2022-11-29T14:26:28.271Z,2.40
2022-11-29T14:28:55.299Z,2.50
2022-11-29T14:31:21.641Z,2.18
2022-11-29T14:33:47.966Z,2.05
2022-11-29T14:36:14.298Z,1.69
2022-11-29T14:38:40.610Z,1.74
2022-11-29T14:41:06.905Z,1.58
2022-11-29T14:43:33.264Z,1.47
2022-11-29T14:45:59.562Z,1.44
2022-11-29T14:48:25.863Z,1.69
2022-11-29T14:50:52.176Z,1.72
2022-11-29T14:53:18.465Z,1.74
2022-11-29T14:55:44.776Z,1.66
2022-11-29T14:58:11.092Z,2.09
2022-11-29T15:00:37.379Z,2.19
2022-11-29T15:03:03.670Z,2.24
2022-11-29T15:05:29.980Z,2.07
2022-11-29T15:07:56.361Z,2.06
2022-11-29T15:10:22.674Z,1.94
2022-11-29T15:12:48.999Z,1.98
2022-11-29T15:15:15.396Z,1.98
2022-11-29T15:17:41.721Z,1.90
2022-11-29T15:20:08.043Z,1.45
2022-11-29T15:22:34.339Z,1.62
2022-11-29T15:25:00.636Z,1.81
2022-11-29T15:27:26.964Z,1.76
2022-11-29T15:29:53.260Z,1.99
2022-11-29T15:32:19.624Z,2.00
2022-11-29T15:34:46.231Z,1.96
2022-11-29T15:37:12.724Z,2.10
2022-11-29T15:39:39.023Z,3.11
2022-11-29T15:42:05.355Z,3.62
2022-11-29T15:44:31.643Z,4.93
2022-11-29T15:46:57.935Z,4.87
2022-11-29T15:49:24.276Z,4.13
2022-11-29T15:51:50.589Z,3.98
2022-11-29T15:54:16.896Z,4.05
2022-11-29T15:56:43.212Z,3.80
2022-11-29T15:59:09.512Z,5.24
2022-11-29T16:01:35.891Z,4.77
2022-11-29T16:04:02.284Z,4.78
2022-11-29T16:06:28.587Z,7.05
2022-11-29T16:08:54.892Z,7.15
2022-11-29T16:11:21.208Z,5.98
2022-11-29T16:13:47.501Z,5.46
2022-11-29T16:16:13.880Z,5.36
2022-11-29T16:18:40.257Z,6.02
2022-11-29T16:21:06.558Z,5.84
2022-11-29T16:23:32.846Z,5.59
2022-11-29T16:25:59.159Z,4.77
2022-11-29T16:28:25.448Z,4.32
2022-11-29T16:30:51.744Z,4.15
2022-11-29T16:33:18.056Z,4.15
2022-11-29T16:35:44.352Z,4.04
2022-11-29T16:38:10.698Z,4.25
2022-11-29T16:40:37.002Z,5.61
2022-11-29T16:43:03.298Z,6.43
2022-11-29T16:45:29.679Z,5.38
2022-11-29T16:47:56.053Z,6.12
2022-11-29T16:50:22.352Z,5.44
2022-11-29T16:52:52.016Z,4.85
2022-11-29T16:55:21.307Z,3.97
2022-11-29T16:57:47.609Z,3.77
2022-11-29T17:00:13.899Z,3.95
2022-11-29T17:02:40.253Z,6.81
2022-11-29T17:05:06.554Z,7.61
2022-11-29T17:07:32.878Z,10.74
2022-11-29T17:09:59.229Z,10.18
2022-11-29T17:12:25.510Z,6.97
2022-11-29T17:14:51.785Z,5.61
2022-11-29T17:17:18.072Z,5.20
2022-11-29T17:19:44.362Z,4.61
2022-11-29T17:22:10.639Z,4.89
2022-11-29T17:24:36.943Z,7.44
2022-11-29T17:27:03.221Z,6.43
2022-11-29T17:29:29.502Z,4.59
2022-11-29T17:31:55.858Z,4.18
2022-11-29T17:34:22.192Z,3.03
2022-11-29T17:36:48.492Z,2.81
2022-11-29T17:39:14.794Z,2.88
2022-11-29T17:41:41.086Z,2.77
2022-11-29T17:44:07.381Z,2.80
2022-11-29T17:46:34.466Z,2.57
2022-11-29T17:49:00.769Z,3.61
2022-11-29T17:51:51.355Z,6.35
2022-11-29T17:54:13.353Z,3.77
2022-11-29T17:56:39.659Z,2.95
2022-11-29T17:59:05.962Z,3.20
2022-11-29T18:01:32.388Z,3.37
2022-11-29T18:03:58.738Z,3.12
2022-11-29T18:06:25.029Z,3.64
2022-11-29T18:08:51.349Z,3.70
2022-11-29T18:11:17.643Z,5.90
2022-11-29T18:13:43.930Z,5.20
2022-11-29T18:16:10.248Z,7.22
2022-11-29T18:18:36.539Z,7.13
2022-11-29T18:21:02.831Z,5.23
2022-11-29T18:23:29.144Z,4.73
2022-11-29T18:25:55.432Z,4.00
2022-11-29T18:28:21.729Z,3.89
2022-11-29T18:30:48.073Z,3.86
2022-11-29T18:33:14.415Z,3.39
2022-11-29T18:35:40.716Z,3.65
2022-11-29T18:38:15.348Z,3.68
2022-11-29T18:40:42.156Z,4.11
2022-11-29T18:43:08.468Z,4.05
2022-11-29T18:45:34.771Z,4.71
2022-11-29T18:48:01.063Z,4.44
2022-11-29T18:50:27.364Z,4.08
2022-11-29T18:52:53.668Z,3.15
2022-11-29T18:55:19.959Z,3.87
2022-11-29T18:57:46.266Z,3.70
2022-11-29T19:00:12.555Z,3.55
2022-11-29T19:02:38.877Z,3.14
2022-11-29T19:05:05.240Z,3.49
2022-11-29T19:07:31.613Z,3.72
2022-11-29T19:09:57.945Z,3.44
2022-11-29T19:12:24.261Z,3.15
2022-11-29T19:14:50.940Z,2.92
2022-11-29T19:17:17.482Z,3.23
2022-11-29T19:19:44.229Z,2.93
2022-11-29T19:22:10.802Z,3.04
2022-11-29T19:24:37.089Z,3.28
2022-11-29T19:27:03.413Z,2.95
2022-11-29T19:29:29.727Z,2.22
2022-11-29T19:31:56.024Z,2.06
2022-11-29T19:34:22.349Z,1.93
2022-11-29T19:36:48.644Z,2.04
2022-11-29T19:39:14.948Z,1.88
2022-11-29T19:41:41.292Z,1.63
2022-11-29T19:44:07.601Z,1.50
2022-11-29T19:46:34.008Z,1.87
2022-11-29T19:49:00.403Z,1.71
2022-11-29T19:51:26.697Z,1.86
2022-11-29T19:53:53.008Z,5.01
2022-11-29T19:56:19.321Z,2.41
2022-11-29T19:58:45.624Z,1.97
2022-11-29T20:01:11.959Z,1.41
2022-11-29T20:03:38.283Z,1.60
2022-11-29T20:06:04.566Z,1.80
2022-11-29T20:08:30.925Z,1.76
2022-11-29T20:10:57.390Z,2.34
2022-11-29T20:13:23.698Z,1.92
2022-11-29T20:15:50.151Z,1.89
2022-11-29T20:18:16.557Z,1.72
2022-11-29T20:20:42.858Z,2.04
2022-11-29T20:23:09.210Z,1.89
2022-11-29T20:25:35.651Z,1.86
2022-11-29T20:28:01.982Z,1.61
2022-11-29T20:30:28.302Z,1.79
2022-11-29T20:32:54.612Z,2.14
2022-11-29T20:35:20.912Z,1.93
2022-11-29T20:37:47.227Z,3.26
2022-11-29T20:40:13.543Z,2.82
2022-11-29T20:42:39.880Z,2.01
2022-11-29T20:45:06.164Z,2.43
2022-11-29T20:47:32.567Z,2.73
2022-11-29T20:49:58.883Z,3.75
2022-11-29T20:52:25.211Z,4.18
2022-11-29T20:54:51.561Z,4.57
2022-11-29T20:57:17.870Z,4.00
2022-11-29T20:59:44.688Z,3.93
2022-11-29T21:02:11.235Z,3.04
2022-11-29T21:04:37.560Z,3.61
2022-11-29T21:07:03.871Z,4.54
2022-11-29T21:09:30.190Z,4.24
2022-11-29T21:11:56.497Z,4.44
2022-11-29T21:14:22.789Z,2.99
2022-11-29T21:16:49.145Z,2.75
2022-11-29T21:19:15.453Z,2.66
2022-11-29T21:21:41.751Z,2.70
2022-11-29T21:24:08.058Z,2.76
2022-11-29T21:26:38.649Z,3.05
2022-11-29T21:29:07.974Z,3.02
2022-11-29T21:31:34.335Z,2.86
2022-11-29T21:34:00.654Z,3.01
2022-11-29T21:36:26.964Z,2.78
2022-11-29T21:38:55.239Z,2.84
2022-11-29T21:41:21.747Z,2.90
2022-11-29T21:44:06.214Z,2.82
2022-11-29T21:46:33.395Z,3.10
2022-11-29T21:48:59.753Z,2.86
2022-11-29T21:51:26.035Z,3.42
2022-11-29T21:53:52.313Z,3.57
2022-11-29T21:56:18.603Z,2.95
2022-11-29T21:58:44.887Z,3.10
2022-11-29T22:01:11.162Z,2.96
2022-11-29T22:03:37.490Z,3.21
2022-11-29T22:06:03.777Z,3.72
2022-11-29T22:08:30.078Z,3.36
2022-11-29T22:10:56.377Z,3.40
2022-11-29T22:13:22.657Z,3.47
2022-11-29T22:15:48.951Z,3.61
2022-11-29T22:18:15.307Z,3.70
2022-11-29T22:20:41.587Z,4.26
2022-11-29T22:23:07.866Z,4.15
2022-11-29T22:25:34.201Z,4.21
2022-11-29T22:28:00.501Z,4.40
2022-11-29T22:30:26.813Z,3.97
2022-11-29T22:32:53.134Z,4.33
2022-11-29T22:35:19.438Z,4.27
2022-11-29T22:37:45.733Z,4.27
2022-11-29T22:40:12.056Z,4.74
2022-11-29T22:42:38.349Z,5.06
2022-11-29T22:45:04.719Z,4.86
2022-11-29T22:47:31.042Z,5.09
2022-11-29T22:49:57.340Z,5.58
2022-11-29T22:52:23.699Z,6.59
2022-11-29T22:54:50.074Z,6.57
2022-11-29T22:57:16.420Z,6.43
2022-11-29T22:59:42.716Z,6.57
2022-11-29T23:02:09.119Z,6.41
2022-11-29T23:04:35.438Z,6.19
2022-11-29T23:07:01.741Z,5.87
2022-11-29T23:09:28.056Z,6.14
2022-11-29T23:11:54.348Z,6.36
2022-11-29T23:14:20.650Z,6.21
2022-11-29T23:16:46.991Z,6.45
2022-11-29T23:19:13.310Z,6.21
2022-11-29T23:21:39.614Z,6.67
2022-11-29T23:24:05.955Z,6.77
2022-11-29T23:26:32.251Z,6.69
2022-11-29T23:28:58.546Z,7.15
2022-11-29T23:31:25.019Z,7.60
2022-11-29T23:33:51.407Z,8.00
2022-11-29T23:36:17.708Z,7.89
2022-11-29T23:38:44.022Z,8.34
2022-11-29T23:41:10.317Z,8.50
2022-11-29T23:43:36.608Z,8.40
2022-11-29T23:46:02.978Z,8.83
2022-11-29T23:48:29.279Z,9.21
2022-11-29T23:50:55.583Z,8.94
2022-11-29T23:53:21.896Z,9.34
2022-11-29T23:55:48.194Z,9.11
2022-11-29T23:58:14.488Z,9.36
